Snohomish County (Paine Field) Airport Everett US
ICAO: KPAE
IATA: PAE
Category: Medium
Scheduled Services: No

Elevation: 606 ft
TransAlt. 18000 ft.

Airport Communications:
ATIS:128.65
CLNC DEL:126.75
SEATTLE CNTR:128.5
CTAF:132.95
GND:121.8
AR OPS:34.1
SEATTLE RDO:132.96
ACFT ARR E OF CNTRLN ORRY 16L/34R:120.2
ACFT ARR W OF CNTRLN ORRY 16R/34L:132.95
UNICOM:122.95

KPAE Zoom In..

If Map Doesn't Load, Click Here

Runways:

(A) RW 11 length 4504 ft width 75 ft
---- / hdg 117

(B) RW 16L length 3004 ft width 75 ft
---- / hdg 163

(C) RW 16R length 9010 ft width 150 ft
ILS 109.30 / hdg 162

(D) RW 29 length 4504 ft width 75 ft
---- / hdg 297

(E) RW 34L length 9010 ft width 150 ft
---- / hdg 342

(F) RW 34R length 3004 ft width 75 ft
---- / hdg 343

Location; KPAE
Day. 26 / Time. 10.53 Zulu
* Altimeter: 30.24
* Temperature: 11° c. 51.8°f.
* Wind from: 340° Speed 04 kn.
Dewpoint: 09° c.
Visibility: 10 Statute Miles.
Clouds: Clear (automated report).

KPAE 261053Z AUTO 34004KT 10SM CLR 11/09 A3024 RMK AO2 SLP241 T01060094


Wind From 340°
Speed 04 kn.

 
 
jpsmedia.com for Web Design worldairports.se 2018   terms of use